Time;durP1;ratioP1;P1;durP2;ratioP2;P2;SDS_P1;SDS_P2;PMS_P1;PMS_P2;Temp;Humidity;BMP_temperature;BMP_pressure;BME280_temperature;BME280_humidity;BME280_pressure;Samples;Min_cycle;Max_cycle;Signal;HPM_P1;HPM_P2
2023/05/28 00:02:05;;;;;;;13.20;7.68;;;;;;;15.77;60.33;101934.81;5035408;28;20117;-61
2023/05/28 00:04:31;;;;;;;16.30;7.43;;;;;;;15.77;60.50;101935.69;5034891;28;20112;-61
2023/05/28 00:06:56;;;;;;;17.35;7.55;;;;;;;15.70;60.55;101940.97;5035261;28;20041;-61
2023/05/28 00:09:22;;;;;;;13.57;7.55;;;;;;;15.73;59.96;101938.31;5035187;28;20121;-62
2023/05/28 00:11:48;;;;;;;14.77;7.70;;;;;;;15.71;60.19;101935.63;5017409;28;20494;-61
2023/05/28 00:14:13;;;;;;;17.88;8.10;;;;;;;15.75;59.76;101929.44;5017319;28;20028;-61
2023/05/28 00:16:40;;;;;;;16.13;7.70;;;;;;;15.68;60.06;101930.31;5035076;28;20033;-62
2023/05/28 00:19:07;;;;;;;17.63;7.80;;;;;;;15.63;60.38;101932.00;5035160;28;20036;-61
2023/05/28 00:21:33;;;;;;;13.95;7.13;;;;;;;15.59;60.40;101923.94;5035094;28;20037;-61
2023/05/28 00:23:59;;;;;;;13.95;7.57;;;;;;;15.61;60.24;101924.88;5034860;28;20029;-61
2023/05/28 00:26:26;;;;;;;12.90;7.22;;;;;;;15.66;60.13;101923.16;5035125;28;20022;-61
2023/05/28 00:28:51;;;;;;;13.82;7.50;;;;;;;15.64;60.43;101925.81;5034706;28;20026;-61
2023/05/28 00:31:17;;;;;;;16.38;7.72;;;;;;;15.62;60.53;101924.88;5034611;28;20032;-61
2023/05/28 00:33:43;;;;;;;15.02;7.53;;;;;;;15.52;61.01;101923.91;5034881;28;20021;-61
2023/05/28 00:36:10;;;;;;;16.67;7.78;;;;;;;15.46;61.93;101928.28;5034725;28;20101;-62
2023/05/28 00:38:36;;;;;;;16.75;7.80;;;;;;;15.42;62.34;101932.72;5034781;28;20413;-61
2023/05/28 00:41:01;;;;;;;18.90;7.60;;;;;;;15.38;62.36;101935.34;5034570;28;20113;-61
2023/05/28 00:43:26;;;;;;;14.38;7.15;;;;;;;15.32;61.81;101933.50;5034518;28;20053;-61
2023/05/28 00:45:53;;;;;;;15.23;7.43;;;;;;;15.25;61.82;101940.56;5034684;28;20026;-61
2023/05/28 00:48:19;;;;;;;17.33;8.15;;;;;;;15.17;62.46;101936.94;5034739;28;20039;-62
2023/05/28 00:50:45;;;;;;;14.18;7.70;;;;;;;15.10;62.38;101936.88;5016636;28;20021;-61
2023/05/28 00:53:12;;;;;;;15.05;7.90;;;;;;;15.08;62.56;101938.63;5034465;28;20479;-63
2023/05/28 00:55:38;;;;;;;16.75;7.82;;;;;;;15.01;62.67;101940.34;5016628;28;20064;-61
2023/05/28 00:58:07;;;;;;;23.30;7.80;;;;;;;14.90;62.63;101928.66;5034319;28;20025;-61
2023/05/28 01:00:36;;;;;;;12.70;7.65;;;;;;;14.94;62.46;101925.16;5031436;28;20060;-61
2023/05/28 01:03:03;;;;;;;16.48;8.40;;;;;;;14.86;62.92;101929.50;5054241;28;20037;-61
2023/05/28 01:05:31;;;;;;;15.20;7.82;;;;;;;14.86;63.06;101926.84;5036171;28;20033;-61
2023/05/28 01:08:00;;;;;;;15.45;8.15;;;;;;;14.76;63.26;101928.53;5054210;28;20025;-61
2023/05/28 01:10:26;;;;;;;14.60;7.53;;;;;;;14.69;63.64;101929.38;5053765;28;20029;-61
2023/05/28 01:12:52;;;;;;;15.77;7.65;;;;;;;14.60;64.05;101929.22;5053896;28;20052;-61
2023/05/28 01:15:18;;;;;;;17.10;7.97;;;;;;;14.57;63.99;101922.13;5053065;28;20375;-61
2023/05/28 01:17:44;;;;;;;13.98;8.35;;;;;;;14.64;63.95;101923.97;5053965;28;20021;-61
2023/05/28 01:20:13;;;;;;;13.90;8.23;;;;;;;14.64;63.56;101926.63;5035915;28;20456;-61
2023/05/28 01:22:45;;;;;;;18.60;8.70;;;;;;;14.57;64.09;101922.13;5053674;28;20501;-61
2023/05/28 01:25:12;;;;;;;;;;;;;;;14.76;61.25;101924.09;5054073;28;20025;-61
2023/05/28 01:27:41;;;;;;;17.70;8.07;;;;;;;14.64;63.57;101923.97;5035668;28;19913;-61
2023/05/28 01:30:09;;;;;;;18.02;8.27;;;;;;;14.60;64.13;101929.22;5053238;28;20096;-61
2023/05/28 01:32:36;;;;;;;17.33;8.48;;;;;;;14.55;64.32;101929.19;5035418;28;20127;-61
2023/05/28 01:35:03;;;;;;;18.08;8.13;;;;;;;14.62;64.28;101931.03;5053382;28;20044;-61
2023/05/28 01:37:30;;;;;;;17.95;8.35;;;;;;;14.68;63.70;101924.91;5053475;28;20049;-61
2023/05/28 01:39:57;;;;;;;16.58;8.20;;;;;;;14.64;63.86;101931.06;5053651;28;20041;-61
2023/05/28 01:42:23;;;;;;;14.98;8.13;;;;;;;14.62;64.11;101928.38;5053373;28;20041;-61
2023/05/28 01:44:50;;;;;;;19.08;8.18;;;;;;;14.61;64.28;101928.38;5053351;28;20108;-62
2023/05/28 01:47:16;;;;;;;15.65;8.10;;;;;;;14.57;64.37;101937.19;5053562;28;20041;-62
2023/05/28 01:49:42;;;;;;;17.77;8.18;;;;;;;14.47;64.59;101928.16;5053555;28;20375;-61
2023/05/28 01:52:07;;;;;;;17.45;8.63;;;;;;;14.38;65.19;101936.91;5053142;28;20048;-61
2023/05/28 01:54:34;;;;;;;15.98;8.10;;;;;;;14.31;65.83;101923.56;5053213;28;20033;-61
2023/05/28 01:57:01;;;;;;;20.27;8.30;;;;;;;14.23;65.83;101924.34;5053199;28;20032;-61
2023/05/28 01:59:26;;;;;;;17.38;8.07;;;;;;;14.22;65.72;101927.00;5035524;28;20441;-61
2023/05/28 02:01:51;;;;;;;19.08;8.57;;;;;;;14.19;65.80;101921.63;5052983;28;20111;-61
2023/05/28 02:04:17;;;;;;;16.02;8.27;;;;;;;14.33;65.29;101922.69;5053338;28;20481;-61
2023/05/28 02:06:45;;;;;;;22.08;8.40;;;;;;;14.28;65.30;101919.06;5053093;28;20021;-61
2023/05/28 02:09:11;;;;;;;16.77;8.20;;;;;;;14.34;65.09;101920.91;5053028;28;20017;-61
2023/05/28 02:11:36;;;;;;;15.55;7.82;;;;;;;14.33;65.25;101913.81;5052865;28;20452;-61
2023/05/28 02:14:03;;;;;;;16.77;7.88;;;;;;;14.27;65.11;101914.63;5053097;28;20159;-62
2023/05/28 02:16:29;;;;;;;16.48;8.35;;;;;;;14.18;65.46;101910.09;5053131;28;20029;-61
2023/05/28 02:18:55;;;;;;;13.10;7.65;;;;;;;14.26;64.65;101911.09;5035028;28;20032;-62
2023/05/28 02:21:20;;;;;;;16.73;7.60;;;;;;;14.31;64.44;101911.16;5052943;28;20371;-61
2023/05/28 02:23:48;;;;;;;20.23;8.05;;;;;;;14.27;64.64;101904.91;5052874;28;20037;-61
2023/05/28 02:26:13;;;;;;;18.20;7.57;;;;;;;14.35;64.09;101897.00;5053664;28;20029;-61
2023/05/28 02:28:42;;;;;;;15.63;7.28;;;;;;;14.33;64.04;101905.84;5056971;28;20024;-61
2023/05/28 02:31:09;;;;;;;15.57;7.07;;;;;;;14.43;63.67;101905.06;5056894;28;20033;-61
2023/05/28 02:33:34;;;;;;;14.32;7.00;;;;;;;14.38;63.67;101901.47;5056907;28;20033;-61
2023/05/28 02:36:00;;;;;;;14.82;7.28;;;;;;;14.38;63.42;101902.34;5056893;28;20032;-61
2023/05/28 02:38:25;;;;;;;16.13;7.15;;;;;;;14.29;63.99;101897.81;5056779;28;20064;-61
2023/05/28 02:40:51;;;;;;;17.13;6.82;;;;;;;14.21;64.40;101893.28;5056894;28;20037;-61
2023/05/28 02:43:16;;;;;;;15.10;7.30;;;;;;;14.07;64.72;101909.06;5056856;28;20036;-61
2023/05/28 02:45:41;;;;;;;14.98;7.10;;;;;;;14.10;64.82;101906.44;5056619;28;20056;-61
2023/05/28 02:48:07;;;;;;;16.67;7.20;;;;;;;14.09;64.73;101901.09;5056694;28;20059;-61
2023/05/28 02:50:32;;;;;;;12.65;7.18;;;;;;;14.06;64.56;101906.38;5056488;28;20382;-61
2023/05/28 02:52:57;;;;;;;13.18;7.00;;;;;;;14.06;64.63;101906.38;5056550;28;20025;-62
2023/05/28 02:55:23;;;;;;;15.65;7.20;;;;;;;13.98;65.05;101908.94;5056527;28;20025;-62
2023/05/28 02:57:48;;;;;;;16.00;7.05;;;;;;;13.92;64.90;101908.84;5056589;28;20032;-61
2023/05/28 03:00:14;;;;;;;16.45;7.40;;;;;;;13.91;64.79;101907.94;5055895;28;20413;-61
2023/05/28 03:02:39;;;;;;;15.60;7.15;;;;;;;14.03;64.82;101912.53;5056228;28;20074;-61
2023/05/28 03:05:05;;;;;;;16.67;7.13;;;;;;;14.04;64.36;101915.19;5056324;28;20022;-61
2023/05/28 03:07:31;;;;;;;16.30;6.85;;;;;;;14.11;64.22;101918.84;5056329;28;20055;-61
2023/05/28 03:09:57;;;;;;;18.45;7.70;;;;;;;14.07;64.39;101919.69;5056078;28;20023;-62
2023/05/28 03:12:23;;;;;;;17.73;7.25;;;;;;;14.00;64.48;101918.72;5056469;28;20056;-61
2023/05/28 03:14:49;;;;;;;18.17;7.60;;;;;;;13.96;64.62;101911.56;5056026;28;20052;-61
2023/05/28 03:17:15;;;;;;;16.33;7.28;;;;;;;13.90;64.87;101911.47;5038586;28;20033;-62
2023/05/28 03:19:40;;;;;;;14.18;7.75;;;;;;;13.90;64.95;101914.13;5056055;28;20018;-61
2023/05/28 03:22:05;;;;;;;14.35;7.68;;;;;;;13.89;64.79;101912.34;5056335;28;20436;-61
2023/05/28 03:24:31;;;;;;;13.98;7.18;;;;;;;13.85;65.22;101918.50;5056110;28;20532;-62
2023/05/28 03:27:00;;;;;;;16.30;7.20;;;;;;;13.75;65.72;101913.94;5056013;28;20053;-62
2023/05/28 03:29:25;;;;;;;16.15;7.57;;;;;;;13.64;66.29;101916.41;5055973;28;20027;-61
2023/05/28 03:31:51;;;;;;;16.75;7.15;;;;;;;13.65;66.04;101911.97;5055611;28;20029;-61
2023/05/28 03:34:16;;;;;;;16.98;7.88;;;;;;;13.56;66.69;101911.84;5037936;28;20029;-61
2023/05/28 03:36:42;;;;;;;16.67;7.63;;;;;;;13.64;66.01;101904.91;5055790;28;20029;-61
2023/05/28 03:39:10;;;;;;;13.95;7.57;;;;;;;13.59;66.27;101918.09;5054867;28;20029;-62
2023/05/28 03:41:36;;;;;;;13.27;7.20;;;;;;;13.63;66.16;101922.59;5055605;28;20428;-61
2023/05/28 03:44:03;;;;;;;16.63;7.15;;;;;;;13.59;66.64;101914.56;5055892;28;20123;-61
2023/05/28 03:46:28;;;;;;;13.35;6.97;;;;;;;13.66;65.93;101919.06;5055609;28;20096;-62
2023/05/28 03:48:53;;;;;;;13.95;6.95;;;;;;;13.65;66.09;101920.84;5037705;28;20078;-61
2023/05/28 03:51:19;;;;;;;14.85;6.97;;;;;;;13.60;66.41;101927.84;5055407;28;20501;-61
2023/05/28 03:53:44;;;;;;;12.93;7.07;;;;;;;13.55;66.72;101931.31;5055525;28;20057;-61
2023/05/28 03:56:10;;;;;;;14.15;7.07;;;;;;;13.55;66.60;101928.66;5037965;28;20386;-61
2023/05/28 03:58:35;;;;;;;11.88;6.90;;;;;;;13.55;66.97;101923.34;5055423;28;20539;-61
2023/05/28 04:01:00;;;;;;;18.95;6.95;;;;;;;13.62;66.26;101927.88;5054956;28;20064;-61
2023/05/28 04:03:26;;;;;;;15.73;6.78;;;;;;;13.56;67.11;101925.13;5055318;28;20025;-61
2023/05/28 04:05:52;;;;;;;16.42;7.60;;;;;;;13.50;67.47;101921.50;5055202;28;20517;-61
2023/05/28 04:08:17;;;;;;;17.10;7.68;;;;;;;13.43;67.88;101922.28;5055204;28;20364;-61
2023/05/28 04:10:43;;;;;;;15.10;7.13;;;;;;;13.40;68.29;101924.88;5055113;28;20028;-61
2023/05/28 04:13:08;;;;;;;15.20;7.00;;;;;;;13.36;68.39;101930.09;5055158;28;20036;-61
2023/05/28 04:15:34;;;;;;;15.48;7.13;;;;;;;13.41;68.33;101929.34;5054925;28;20108;-61
2023/05/28 04:18:00;;;;;;;13.80;7.60;;;;;;;13.39;68.65;101925.75;5055058;28;20025;-61
2023/05/28 04:20:25;;;;;;;13.38;6.97;;;;;;;13.45;68.32;101925.84;5054968;28;20033;-61
2023/05/28 04:22:50;;;;;;;12.65;6.82;;;;;;;13.40;69.25;101938.13;5054858;28;20036;-61
2023/05/28 04:25:18;;;;;;;15.73;6.85;;;;;;;13.43;69.24;101938.19;5055056;28;20104;-61
2023/05/28 04:27:44;;;;;;;15.40;8.13;;;;;;;13.49;69.09;101942.75;5054961;28;20136;-61
2023/05/28 04:30:11;;;;;;;16.08;7.85;;;;;;;13.52;69.37;101942.75;5037053;28;20029;-61
2023/05/28 04:32:39;;;;;;;20.60;7.28;;;;;;;13.52;69.88;101937.44;5054756;28;20048;-61
2023/05/28 04:35:11;;;;;;;21.05;8.15;;;;;;;13.52;69.76;101941.00;5054554;28;20029;-61
2023/05/28 04:37:39;;;;;;;14.38;7.20;;;;;;;13.51;70.25;101946.28;5054926;28;20146;-61
2023/05/28 04:40:06;;;;;;;13.75;7.15;;;;;;;13.63;70.01;101948.25;5054551;28;20037;-62
2023/05/28 04:42:31;;;;;;;16.17;7.55;;;;;;;13.64;70.53;101948.28;5054543;28;20033;-61
2023/05/28 04:44:58;;;;;;;17.08;7.60;;;;;;;13.65;70.74;101952.72;5054378;28;20029;-61
2023/05/28 04:47:23;;;;;;;18.02;7.45;;;;;;;13.65;71.09;101954.47;5054413;28;20033;-61
2023/05/28 04:49:49;;;;;;;18.77;7.68;;;;;;;13.67;71.62;101956.31;5054103;28;20440;-61
2023/05/28 04:52:16;;;;;;;15.27;7.72;;;;;;;13.74;71.37;101952.84;5054500;28;20028;-61
2023/05/28 04:54:41;;;;;;;20.77;8.02;;;;;;;13.81;71.39;101952.97;5054302;28;20029;-61
2023/05/28 04:57:07;;;;;;;18.65;8.02;;;;;;;13.93;71.23;101950.50;5036720;28;20390;-62
2023/05/28 04:59:34;;;;;;;19.27;7.32;;;;;;;14.07;71.34;101953.34;5053971;28;20410;-61
2023/05/28 05:01:59;;;;;;;17.95;7.82;;;;;;;14.16;71.23;101950.81;5053902;28;20025;-61
2023/05/28 05:04:25;;;;;;;14.18;7.50;;;;;;;14.23;71.36;101958.00;5036397;28;20021;-61
2023/05/28 05:06:50;;;;;;;17.33;8.45;;;;;;;14.40;70.93;101952.91;5053962;28;20025;-61
2023/05/28 05:09:16;;;;;;;19.67;8.20;;;;;;;14.49;71.06;101945.97;5053974;28;20021;-61
2023/05/28 05:11:41;;;;;;;20.88;8.73;;;;;;;14.58;71.00;101946.97;5054082;28;20040;-61
2023/05/28 05:14:07;;;;;;;17.15;8.00;;;;;;;14.68;70.94;101960.38;5054122;28;20466;-61
2023/05/28 05:16:32;;;;;;;18.95;7.78;;;;;;;14.74;71.07;101955.13;5026278;28;20136;-61
2023/05/28 05:18:58;;;;;;;16.77;8.05;;;;;;;14.88;70.75;101957.06;5033836;28;20112;-62
2023/05/28 05:21:24;;;;;;;17.55;7.90;;;;;;;14.94;70.85;101952.66;5033831;28;20028;-61
2023/05/28 05:23:50;;;;;;;18.88;8.23;;;;;;;15.11;70.51;101963.50;5033846;28;20026;-61
2023/05/28 05:26:18;;;;;;;18.02;8.27;;;;;;;15.24;71.09;101957.41;5033768;28;20051;-61
2023/05/28 05:28:44;;;;;;;16.17;8.23;;;;;;;15.36;69.79;101964.63;5015912;28;20040;-62
2023/05/28 05:31:12;;;;;;;17.42;7.68;;;;;;;15.46;70.04;101965.59;5033382;28;20021;-62
2023/05/28 05:33:37;;;;;;;17.65;8.15;;;;;;;15.56;69.41;101962.13;5033610;28;20025;-61
2023/05/28 05:36:03;;;;;;;17.65;8.95;;;;;;;15.61;69.42;101960.41;5033507;28;20040;-61
2023/05/28 05:38:30;;;;;;;17.67;8.48;;;;;;;15.77;69.01;101969.44;5016179;28;20025;-62
2023/05/28 05:40:55;;;;;;;18.65;8.10;;;;;;;15.88;68.43;101978.38;5033509;28;20030;-61
2023/05/28 05:43:21;;;;;;;16.00;7.75;;;;;;;15.97;68.19;101977.56;5033489;28;20040;-61
2023/05/28 05:45:46;;;;;;;20.88;7.82;;;;;;;16.07;68.31;101970.53;5033534;28;20018;-61
2023/05/28 05:48:12;;;;;;;21.85;8.15;;;;;;;16.25;67.50;101973.31;5033378;28;20056;-61
2023/05/28 05:50:57;;;;;;;17.75;7.68;;;;;;;16.39;67.02;101979.59;5033609;28;20025;-61
2023/05/28 05:53:24;;;;;;;18.35;7.97;;;;;;;16.57;66.74;101978.78;5033237;28;20045;-61
2023/05/28 05:55:50;;;;;;;16.92;8.15;;;;;;;16.74;66.56;101977.13;5016089;28;20061;-62
2023/05/28 05:58:16;;;;;;;18.70;8.25;;;;;;;16.88;65.43;101970.94;5033371;28;20025;-61
2023/05/28 06:00:41;;;;;;;22.13;7.60;;;;;;;16.99;64.13;101978.06;5032023;28;20056;-61
2023/05/28 06:03:07;;;;;;;20.98;7.75;;;;;;;16.96;64.21;101979.84;5033386;28;20499;-61
2023/05/28 06:05:33;;;;;;;18.92;7.65;;;;;;;16.88;64.02;101969.16;5033179;28;20052;-61
2023/05/28 06:07:58;;;;;;;16.40;7.95;;;;;;;16.95;64.00;101975.38;5033344;28;20395;-61
2023/05/28 06:10:24;;;;;;;18.13;7.80;;;;;;;17.08;63.33;101971.84;5015399;28;20028;-61
2023/05/28 06:12:49;;;;;;;18.17;8.52;;;;;;;17.25;62.94;101972.75;5033338;28;20026;-61
2023/05/28 06:15:15;;;;;;;17.95;8.13;;;;;;;17.49;61.90;101976.34;5032978;28;20037;-62
2023/05/28 06:17:41;;;;;;;18.02;8.45;;;;;;;17.73;61.84;101976.38;5033098;28;20095;-61
2023/05/28 06:20:07;;;;;;;19.77;7.70;;;;;;;17.86;60.68;101977.28;5033033;28;20080;-61
2023/05/28 06:22:33;;;;;;;17.33;8.27;;;;;;;17.95;60.13;101977.25;5033164;28;20033;-61
2023/05/28 06:25:00;;;;;;;19.70;8.23;;;;;;;18.10;60.18;101981.66;5032941;28;20022;-61
2023/05/28 06:27:26;;;;;;;20.35;8.00;;;;;;;18.23;58.96;101979.84;5032917;28;20483;-61
2023/05/28 06:29:51;;;;;;;15.55;7.57;;;;;;;18.38;58.49;101976.25;5015078;28;20022;-61
2023/05/28 06:32:17;;;;;;;18.38;7.47;;;;;;;18.65;58.66;101969.91;5032601;28;20057;-61
2023/05/28 06:34:43;;;;;;;15.27;7.57;;;;;;;18.88;57.04;101965.34;5033062;28;20033;-61
2023/05/28 06:37:08;;;;;;;18.27;7.75;;;;;;;19.16;56.33;101966.06;5032872;28;20494;-62
2023/05/28 06:39:34;;;;;;;16.33;7.80;;;;;;;19.43;56.16;101969.44;5033052;28;20084;-61
2023/05/28 06:41:59;;;;;;;16.23;7.50;;;;;;;19.67;54.71;101969.28;5032705;28;20030;-61
2023/05/28 06:44:25;;;;;;;19.38;7.80;;;;;;;19.78;53.52;101969.16;5032701;28;20041;-62
2023/05/28 06:46:50;;;;;;;17.35;7.10;;;;;;;19.97;52.02;101962.72;5032784;28;20025;-62
2023/05/28 06:49:15;;;;;;;16.50;7.28;;;;;;;20.05;51.21;101968.00;5032888;28;20032;-61
2023/05/28 06:51:41;;;;;;;14.02;6.60;;;;;;;20.25;50.42;101965.97;5032871;28;20033;-61
2023/05/28 06:54:06;;;;;;;17.25;6.78;;;;;;;20.42;50.26;101955.03;5032653;28;20029;-61
2023/05/28 06:56:32;;;;;;;20.75;6.70;;;;;;;20.70;50.34;101970.84;5032594;28;20029;-62
2023/05/28 06:58:57;;;;;;;15.82;7.30;;;;;;;21.00;49.94;101967.72;5032874;28;20360;-61
2023/05/28 07:01:23;;;;;;;13.48;7.30;;;;;;;21.25;49.54;101962.88;5032076;28;20057;-61
2023/05/28 07:03:48;;;;;;;14.02;6.70;;;;;;;21.60;48.43;101961.44;5032873;28;20483;-61
2023/05/28 07:06:14;;;;;;;17.42;6.97;;;;;;;21.85;47.93;101961.00;5032570;28;20033;-61
2023/05/28 07:08:44;;;;;;;19.13;6.78;;;;;;;21.97;46.46;101967.06;5032519;28;20037;-61
2023/05/28 07:11:10;;;;;;;14.40;7.43;;;;;;;22.15;45.55;101971.22;5032515;28;20029;-61
2023/05/28 07:13:35;;;;;;;17.02;6.82;;;;;;;22.32;44.57;101968.22;5035625;28;20025;-61
2023/05/28 07:16:01;;;;;;;13.98;6.05;;;;;;;22.37;44.86;101966.31;5018494;28;20025;-62
2023/05/28 07:18:26;;;;;;;17.67;6.63;;;;;;;22.58;44.44;101959.59;5036100;28;20500;-63
2023/05/28 07:20:52;;;;;;;17.08;6.93;;;;;;;22.83;44.94;101972.53;5035987;28;20045;-62
2023/05/28 07:23:17;;;;;;;13.80;6.70;;;;;;;23.10;44.03;101976.44;5036041;28;20030;-61
2023/05/28 07:25:43;;;;;;;16.95;6.60;;;;;;;23.03;42.72;101972.09;5035916;28;20060;-61
2023/05/28 07:28:08;;;;;;;12.68;6.20;;;;;;;22.83;43.19;101976.09;5018278;28;20467;-61
2023/05/28 07:30:34;;;;;;;16.08;6.40;;;;;;;22.58;43.58;101978.44;5035650;28;20391;-61
2023/05/28 07:32:59;;;;;;;15.57;6.40;;;;;;;22.34;44.33;101989.72;5035864;28;20030;-62
2023/05/28 07:35:24;;;;;;;15.23;6.18;;;;;;;22.19;43.79;101975.63;5036190;28;20374;-62
2023/05/28 07:37:52;;;;;;;16.15;6.40;;;;;;;22.10;44.30;101986.56;5035875;28;20115;-61
2023/05/28 07:40:17;;;;;;;12.32;6.50;;;;;;;22.05;44.00;101987.53;5035732;28;20037;-61
2023/05/28 07:42:42;;;;;;;20.73;6.53;;;;;;;22.21;44.41;101983.69;5035597;28;20033;-62
2023/05/28 07:45:08;;;;;;;13.85;6.38;;;;;;;22.61;44.31;101983.78;5035531;28;20462;-65
2023/05/28 07:47:33;;;;;;;13.18;6.20;;;;;;;22.93;42.84;101983.09;5035805;28;20018;-66
2023/05/28 07:49:59;;;;;;;14.95;6.20;;;;;;;23.07;41.10;101980.06;5035872;28;20052;-64
2023/05/28 07:52:29;;;;;;;17.67;6.00;;;;;;;22.94;41.90;101975.88;5017653;28;20487;-65
2023/05/28 07:54:56;;;;;;;16.60;5.78;;;;;;;22.80;41.46;101975.28;5035798;28;20041;-64
2023/05/28 07:57:22;;;;;;;11.48;5.82;;;;;;;22.77;41.77;101978.03;5035547;28;20025;-65
2023/05/28 07:59:47;;;;;;;17.90;5.90;;;;;;;22.64;42.23;101983.69;5034983;28;20036;-65
2023/05/28 08:02:13;;;;;;;17.90;5.90;;;;;;;22.48;42.94;101987.63;5035448;28;20151;-65
2023/05/28 08:04:38;;;;;;;14.48;6.10;;;;;;;22.27;43.49;101979.97;5035312;28;20360;-65
2023/05/28 08:07:04;;;;;;;12.43;5.65;;;;;;;22.13;43.50;101977.56;5035532;28;20030;-65
2023/05/28 08:09:30;;;;;;;15.80;5.80;;;;;;;22.09;44.44;101983.88;5035232;28;20034;-65
2023/05/28 08:11:55;;;;;;;16.13;6.47;;;;;;;22.04;46.88;101983.97;5035169;28;20040;-64
2023/05/28 08:14:20;;;;;;;16.60;7.40;;;;;;;21.93;48.87;101975.22;5035104;28;20424;-65
2023/05/28 08:16:46;;;;;;;19.30;8.32;;;;;;;21.87;48.62;101978.00;5035014;28;20028;-64
2023/05/28 08:19:11;;;;;;;20.80;8.43;;;;;;;21.76;49.70;101975.53;5000973;28;20025;-65
2023/05/28 08:21:36;;;;;;;16.63;8.10;;;;;;;21.58;49.82;101976.69;5035074;28;20120;-65
2023/05/28 08:24:02;;;;;;;19.13;8.40;;;;;;;21.59;50.71;101972.22;5034444;28;20031;-65
2023/05/28 08:26:27;;;;;;;14.10;8.48;;;;;;;21.80;51.33;101970.94;5034944;28;20025;-64
2023/05/28 08:28:53;;;;;;;17.02;8.73;;;;;;;22.29;49.94;101972.75;5034744;28;20036;-65
2023/05/28 08:31:18;;;;;;;20.23;8.32;;;;;;;22.81;48.83;101969.84;5034549;28;20037;-64
2023/05/28 08:33:43;;;;;;;20.25;8.32;;;;;;;23.51;46.64;101972.75;5034851;28;20079;-65
2023/05/28 08:36:10;;;;;;;16.35;7.13;;;;;;;23.94;45.51;101968.97;5034647;28;20021;-65
2023/05/28 08:38:35;;;;;;;18.08;6.50;;;;;;;24.41;40.66;101959.56;5034570;28;20112;-65
2023/05/28 08:41:01;;;;;;;12.00;5.03;;;;;;;24.72;38.66;101964.03;5034842;28;20113;-65
2023/05/28 08:43:27;;;;;;;13.32;4.80;;;;;;;24.94;38.11;101965.13;5017098;28;20072;-65
2023/05/28 08:45:53;;;;;;;11.88;4.53;;;;;;;25.16;36.39;101965.38;5041263;28;20432;-64
2023/05/28 08:48:21;;;;;;;11.07;4.90;;;;;;;25.21;36.05;101963.41;5054403;28;20024;-65
2023/05/28 08:50:52;;;;;;;10.88;5.05;;;;;;;25.28;35.54;101966.81;5054238;28;20025;-65
2023/05/28 08:53:23;;;;;;;13.07;5.07;;;;;;;25.46;37.20;101965.31;5054139;28;20032;-65
2023/05/28 08:55:48;;;;;;;11.52;5.10;;;;;;;25.50;36.40;101958.84;5054558;28;20142;-65
2023/05/28 08:58:14;;;;;;;12.32;4.97;;;;;;;25.69;36.98;101961.81;5054247;28;20489;-65
2023/05/28 09:00:40;;;;;;;12.43;4.95;;;;;;;25.98;35.66;101960.81;5053777;28;20501;-65
2023/05/28 09:03:07;;;;;;;10.13;4.78;;;;;;;26.00;34.80;101949.94;5053108;28;20025;-65
2023/05/28 09:05:37;;;;;;;11.65;4.97;;;;;;;25.93;35.13;101955.56;5053613;28;20478;-65
2023/05/28 09:08:07;;;;;;;12.25;5.00;;;;;;;26.15;34.93;101955.66;5053859;28;20040;-65
2023/05/28 09:10:33;;;;;;;14.82;5.55;;;;;;;26.34;35.06;101944.16;5035803;28;20035;-65
2023/05/28 09:12:59;;;;;;;10.88;5.07;;;;;;;26.53;35.12;101952.50;5054054;28;20449;-65
2023/05/28 09:15:25;;;;;;;10.95;5.45;;;;;;;26.62;34.56;101938.59;5035943;28;20033;-64
2023/05/28 09:17:50;;;;;;;10.45;4.93;;;;;;;26.85;33.77;101937.69;5053817;28;20096;-65
2023/05/28 09:20:16;;;;;;;10.65;4.57;;;;;;;26.95;33.31;101939.09;5053831;28;20025;-65
2023/05/28 09:22:43;;;;;;;10.18;4.22;;;;;;;26.99;31.66;101937.16;5053851;28;20051;-65
2023/05/28 09:25:09;;;;;;;11.25;4.20;;;;;;;27.15;30.43;101941.00;5053663;28;20025;-65
2023/05/28 09:27:36;;;;;;;9.52;4.35;;;;;;;27.03;31.62;101938.78;5053629;28;20025;-65
2023/05/28 09:30:11;;;;;;;10.73;4.10;;;;;;;27.18;30.62;101940.88;5035658;28;20056;-65
2023/05/28 09:32:37;;;;;;;9.27;3.90;;;;;;;27.18;31.10;101947.19;5037004;28;20036;-64
2023/05/28 09:35:06;;;;;;;12.25;4.35;;;;;;;26.97;30.08;101945.31;5053352;28;20029;-65
2023/05/28 09:37:32;;;;;;;11.30;4.45;;;;;;;27.03;30.89;101952.34;5052748;28;20052;-65
2023/05/28 09:40:03;;;;;;;11.68;4.38;;;;;;;26.84;30.90;101938.63;5053515;28;20059;-65
2023/05/28 09:42:38;;;;;;;13.15;4.60;;;;;;;26.97;31.07;101948.91;5053530;28;20064;-65
2023/05/28 09:45:04;;;;;;;9.43;4.22;;;;;;;26.86;31.99;101937.63;5053598;28;20040;-65
2023/05/28 09:47:29;;;;;;;10.25;4.80;;;;;;;27.10;31.76;101938.47;5053436;28;20113;-65
2023/05/28 09:49:54;;;;;;;11.55;4.40;;;;;;;27.07;32.17;101940.44;5053282;28;20025;-65
2023/05/28 09:52:22;;;;;;;9.85;4.50;;;;;;;27.19;31.75;101932.72;5053231;28;20021;-65
2023/05/28 09:54:53;;;;;;;8.45;4.10;;;;;;;27.06;31.60;101934.09;5053281;28;20096;-65
2023/05/28 09:57:30;;;;;;;11.93;4.53;;;;;;;27.05;31.21;101937.75;5053240;28;20024;-65
2023/05/28 09:59:56;;;;;;;9.02;4.25;;;;;;;27.08;31.10;101924.06;5053044;28;20041;-65
2023/05/28 10:02:46;;;;;;;14.70;4.75;;;;;;;26.92;32.58;101928.34;5052970;28;20032;-65
2023/05/28 10:05:16;;;;;;;12.63;4.40;;;;;;;26.75;31.42;101920.91;5052770;28;20382;-65
2023/05/28 10:07:44;;;;;;;11.93;4.63;;;;;;;26.73;32.61;101932.75;5053101;28;20406;-65
2023/05/28 10:10:14;;;;;;;11.93;4.53;;;;;;;26.96;31.18;101928.16;5052968;28;20383;-65
2023/05/28 10:12:40;;;;;;;11.68;4.50;;;;;;;27.17;31.28;101925.56;5035573;28;20064;-65
2023/05/28 10:15:07;;;;;;;10.20;4.40;;;;;;;27.31;30.82;101927.69;5052845;28;20474;-65
2023/05/28 10:17:33;;;;;;;11.57;4.38;;;;;;;27.45;30.89;101934.31;5052974;28;20021;-65
2023/05/28 10:20:00;;;;;;;10.68;4.65;;;;;;;27.56;30.21;101933.84;5053130;28;20040;-65
2023/05/28 10:22:25;;;;;;;10.00;4.50;;;;;;;27.55;30.39;101932.09;5052811;28;20029;-65
2023/05/28 10:24:51;;;;;;;13.40;4.80;;;;;;;27.54;31.39;101927.63;5035091;28;20367;-65
2023/05/28 10:27:18;;;;;;;11.27;4.40;;;;;;;27.45;29.91;101930.69;5052823;28;20021;-66
2023/05/28 10:29:48;;;;;;;10.73;4.38;;;;;;;27.47;30.09;101926.09;5053115;28;20039;-65
2023/05/28 10:32:16;;;;;;;8.90;4.07;;;;;;;27.80;29.75;101925.63;5052642;28;20505;-64
2023/05/28 10:34:42;;;;;;;10.40;4.45;;;;;;;28.15;28.30;101914.03;5052749;28;20025;-65
2023/05/28 10:37:09;;;;;;;11.60;4.68;;;;;;;28.18;28.03;101916.63;5052810;28;20026;-65
2023/05/28 10:39:45;;;;;;;10.10;4.40;;;;;;;28.40;26.98;101923.81;5052762;28;20097;-65
2023/05/28 10:42:16;;;;;;;11.45;4.35;;;;;;;28.32;27.45;101925.97;5052695;28;20057;-65
2023/05/28 10:44:59;;;;;;;10.27;4.30;;;;;;;28.42;28.95;101927.34;5052983;28;20025;-65
2023/05/28 10:47:36;;;;;;;9.27;4.25;;;;;;;28.24;27.50;101930.88;5053936;28;20100;-65
2023/05/28 10:50:12;;;;;;;10.40;4.40;;;;;;;28.03;27.63;101930.03;5057161;28;20032;-65
2023/05/28 10:52:38;;;;;;;11.85;4.50;;;;;;;27.91;27.94;101939.59;5056711;28;20086;-65
2023/05/28 10:55:07;;;;;;;10.93;4.63;;;;;;;28.08;28.51;101915.25;5056873;28;20041;-65
2023/05/28 10:57:45;;;;;;;9.65;4.47;;;;;;;28.07;28.15;101931.66;5038719;28;20025;-65
2023/05/28 11:00:14;;;;;;;12.15;4.70;;;;;;;28.11;28.20;101926.00;5055999;28;20107;-65
2023/05/28 11:02:43;;;;;;;11.43;4.25;;;;;;;28.10;29.27;101929.69;5056378;28;20029;-65
2023/05/28 11:05:09;;;;;;;9.68;4.10;;;;;;;28.08;28.69;101928.84;5056407;28;20071;-65
2023/05/28 11:07:40;;;;;;;9.25;4.30;;;;;;;27.91;28.89;101926.91;5038446;28;20040;-65
2023/05/28 11:10:07;;;;;;;8.90;4.55;;;;;;;27.64;29.87;101919.94;5056686;28;20456;-65
2023/05/28 11:12:36;;;;;;;11.18;4.32;;;;;;;27.46;29.23;101930.66;5038630;28;20486;-65
2023/05/28 11:15:03;;;;;;;13.55;4.18;;;;;;;27.51;29.93;101930.44;5056111;28;20017;-64